Park City, UT (84060)

5:40 PM MDT on October 24, 2014 (GMT -0600)
Silver Summit | Change Station
CLOSE
Current Station
Personal Weather Station
Location: Park City, UT
Elevation: 6568 ft
Nearby Weather Stations

Elev 6568 ft 40.71 °N, 111.49 °W | Updated 4 minutes ago

Clear
Clear
67.3 °F
Feels Like 67.3 °F
N
9.8
Wind Variable Wind from North
Gusts 15.9 mph

Today
High -- | Low -- °F
--% Chance of Precip.
Yesterday
High -- | Low -- °F
Precip. -- in
7:47 AM 6:32 PM
New Moon, 1% visible
Pressure 30.17 in
Visibility 10.0 miles
Clouds Clear
Dew Point 22 °F
Humidity 18%
Rainfall 0.00 in
Snow Depth Not available.
UV 1 out of 12
Pollen 1.80 out of 12
Air Quality Not available.
Flu Activity Sporadic
METAR K36U 242335Z AUTO 25005KT 10SM CLR 22/M01 A3017 RMK AO2

More Conditions Fewer Conditions

Pressure 30.17 in
Visibility 10.0 miles
Clouds Clear
Dew Point 22 °F
Humidity 18%
Rainfall 0.00 in
Snow Depth Not available.
UV 1 out of 12
Pollen 1.80 out of 12
Air Quality Not available.
Flu Activity Sporadic
METAR K36U 242335Z AUTO 25005KT 10SM CLR 22/M01 A3017 RMK AO2

More Conditions Fewer Conditions

10-Day Weather Forecast

Almanac

Astronomy

Oct. 24, 2014 Rise Set
Actual Time 7:47 AM MDT 6:32 PM MDT
Civil Twilight 7:19 AM MDT 7:00 PM MDT
Nautical Twilight 6:47 AM MDT 7:32 PM MDT
Astronomical Twilight 6:15 AM MDT 8:04 PM MDT
Moon 8:30 AM MDT 7:14 PM MDT
Length of Visible Light 11h 41m
Length of Day
10h 45m
Tomorrow will be 2m 30s shorter.
New Moon, 1% of the Moon is Illuminated
Today
New Moon
Oct 30
First Quarter
Nov 6
Full
Nov 14
Last Quarter
Nov 22
New

Today's Extremes

State Highs State Lows

Community

WunderPhotos

Upload Photos

1,764,713 photos uploaded!

Nearby

Snow Depth

Station Depth Elevation
Smith & Morehouse 0 in 7600 ft
Chalk Creek #1 0 in 9100 ft
Trial Lake 0 in 9960 ft
Cascade Mountain 0 in 7768 ft
Daniels-Strawberry 0 in 8000 ft

Earthquake Activity

City Distance Mag. Time & Date
Ferron, Utah 119 miles 2.5 10:53 PM MDT
2014-10-21
Minimum magnitude displayed is 2.5.

Coastal Water Temperatures

Place Temperature
No Stations Reporting

Nearby Weather Stations